createdAt,value
2022-12-14T00:01:56.145Z,2.98
2022-12-14T00:04:23.730Z,2.91
2022-12-14T00:06:51.362Z,2.90
2022-12-14T00:09:18.896Z,2.92
2022-12-14T00:11:46.426Z,2.87
2022-12-14T00:16:58.751Z,3.10
2022-12-14T00:19:26.346Z,3.02
2022-12-14T00:21:56.963Z,3.03
2022-12-14T00:24:24.410Z,3.51
2022-12-14T00:26:51.854Z,3.30
2022-12-14T00:29:19.349Z,2.94
2022-12-14T00:31:48.627Z,3.11
2022-12-14T00:34:16.657Z,3.53
2022-12-14T00:36:45.554Z,3.34
2022-12-14T00:39:13.075Z,2.92
2022-12-14T00:41:40.505Z,2.85
2022-12-14T00:44:08.009Z,3.08
2022-12-14T00:46:35.533Z,2.99
2022-12-14T00:49:02.961Z,3.30
2022-12-14T00:51:30.394Z,3.18
2022-12-14T00:53:57.803Z,3.61
2022-12-14T00:56:25.328Z,3.51
2022-12-14T00:58:54.422Z,3.13
2022-12-14T01:01:22.430Z,3.53
2022-12-14T01:03:50.359Z,3.08
2022-12-14T01:06:21.640Z,3.08
2022-12-14T01:08:49.964Z,2.99
2022-12-14T01:11:17.946Z,2.90
2022-12-14T01:13:49.317Z,2.91
2022-12-14T01:16:17.437Z,3.03
2022-12-14T01:18:45.436Z,2.97
2022-12-14T01:21:17.713Z,3.06
2022-12-14T01:23:46.751Z,3.06
2022-12-14T01:26:17.351Z,2.98
2022-12-14T01:28:46.878Z,3.11
2022-12-14T01:31:19.617Z,3.54
2022-12-14T01:33:48.872Z,3.24
2022-12-14T01:36:25.302Z,3.37
2022-12-14T01:38:56.808Z,3.59
2022-12-14T01:41:28.034Z,3.31
2022-12-14T01:43:57.763Z,3.46
2022-12-14T01:47:07.380Z,3.21
2022-12-14T01:49:46.019Z,2.81
2022-12-14T01:52:43.790Z,2.85
2022-12-14T01:55:21.810Z,2.80
2022-12-14T01:58:03.310Z,2.74
2022-12-14T02:00:31.623Z,2.83
2022-12-14T02:03:07.755Z,2.80
2022-12-14T02:05:39.630Z,2.92
2022-12-14T02:08:08.496Z,2.87
2022-12-14T02:10:36.687Z,3.11
2022-12-14T02:13:20.077Z,2.89
2022-12-14T02:15:48.695Z,3.01
2022-12-14T02:18:23.203Z,2.85
2022-12-14T02:21:46.223Z,2.75
2022-12-14T02:24:46.731Z,2.96
2022-12-14T02:27:38.409Z,2.96
2022-12-14T02:30:15.072Z,2.89
2022-12-14T02:32:49.004Z,2.89
2022-12-14T02:36:06.425Z,3.07
2022-12-14T02:38:53.234Z,3.08
2022-12-14T02:41:41.575Z,3.08
2022-12-14T02:44:37.889Z,3.11
2022-12-14T02:47:20.847Z,3.06
2022-12-14T02:50:49.163Z,3.14
2022-12-14T02:54:11.088Z,3.15
2022-12-14T02:56:49.148Z,3.13
2022-12-14T02:59:18.747Z,3.13
2022-12-14T03:01:48.806Z,3.11
2022-12-14T03:04:17.904Z,3.17
2022-12-14T03:07:00.849Z,3.26
2022-12-14T03:09:30.687Z,3.11
2022-12-14T03:12:09.364Z,3.18
2022-12-14T03:26:34.868Z,3.36
2022-12-14T03:29:22.044Z,3.36
2022-12-14T03:31:56.215Z,3.40
2022-12-14T03:34:36.453Z,3.40
2022-12-14T03:37:14.916Z,3.58
2022-12-14T03:39:44.304Z,3.53
2022-12-14T03:42:26.022Z,3.47
2022-12-14T03:45:22.416Z,3.34
2022-12-14T03:48:10.707Z,3.38
2022-12-14T03:51:13.110Z,3.43
2022-12-14T03:53:45.890Z,3.41
2022-12-14T03:56:35.055Z,3.29
2022-12-14T03:59:20.732Z,3.33
2022-12-14T04:02:04.753Z,3.35
2022-12-14T04:04:52.886Z,3.39
2022-12-14T04:08:20.792Z,3.43
2022-12-14T04:11:10.946Z,3.52
2022-12-14T04:14:16.507Z,3.50
2022-12-14T04:17:06.453Z,3.44
2022-12-14T04:20:14.269Z,3.49
2022-12-14T04:22:50.144Z,3.48
2022-12-14T04:25:44.737Z,3.38
2022-12-14T04:28:38.405Z,3.42
2022-12-14T04:31:12.345Z,3.61
2022-12-14T04:33:46.921Z,3.52
2022-12-14T04:36:28.411Z,3.56
2022-12-14T04:39:07.336Z,3.45
2022-12-14T04:41:44.171Z,3.22
2022-12-14T04:44:24.950Z,3.18
2022-12-14T04:46:54.908Z,3.16
2022-12-14T04:49:51.324Z,3.21
2022-12-14T04:52:34.375Z,3.22
2022-12-14T04:55:26.416Z,3.07
2022-12-14T04:58:12.566Z,3.16
2022-12-14T05:01:22.814Z,3.24
2022-12-14T05:04:15.596Z,3.11
2022-12-14T05:06:52.157Z,3.27
2022-12-14T05:09:50.379Z,3.08
2022-12-14T05:12:42.652Z,3.08
2022-12-14T05:15:23.732Z,3.09
2022-12-14T05:17:52.958Z,3.04
2022-12-14T05:20:27.389Z,3.24
2022-12-14T05:22:55.481Z,3.58
2022-12-14T05:25:23.346Z,3.20
2022-12-14T05:27:51.265Z,3.19
2022-12-14T05:30:19.301Z,3.08
2022-12-14T05:32:47.661Z,2.90
2022-12-14T05:35:16.532Z,2.86
2022-12-14T05:37:44.538Z,2.93
2022-12-14T05:40:13.235Z,2.95
2022-12-14T05:42:44.669Z,3.05
2022-12-14T05:45:16.094Z,3.07
2022-12-14T05:47:44.054Z,3.20
2022-12-14T05:50:12.641Z,3.05
2022-12-14T05:52:40.676Z,3.12
2022-12-14T05:55:09.913Z,3.19
2022-12-14T05:57:37.967Z,3.18
2022-12-14T06:00:07.138Z,3.14
2022-12-14T06:02:35.690Z,3.05
2022-12-14T06:05:04.235Z,3.05
2022-12-14T06:07:31.929Z,3.23
2022-12-14T06:10:00.090Z,3.31
2022-12-14T06:12:28.364Z,3.24
2022-12-14T06:14:56.613Z,3.13
2022-12-14T06:17:24.570Z,3.07
2022-12-14T06:19:52.979Z,3.08
2022-12-14T06:22:21.894Z,3.01
2022-12-14T06:24:50.051Z,3.06
2022-12-14T06:27:18.657Z,3.15
2022-12-14T06:29:46.900Z,2.96
2022-12-14T06:32:15.081Z,3.14
2022-12-14T06:34:44.521Z,3.32
2022-12-14T06:37:13.314Z,3.30
2022-12-14T06:39:42.144Z,3.03
2022-12-14T06:42:11.868Z,3.04
2022-12-14T06:44:40.799Z,2.92
2022-12-14T06:47:09.194Z,3.04
2022-12-14T06:49:37.567Z,3.41
2022-12-14T06:52:06.170Z,3.47
2022-12-14T06:54:34.433Z,3.85
2022-12-14T06:57:02.829Z,4.00
2022-12-14T06:59:31.051Z,3.91
2022-12-14T07:01:59.685Z,3.99
2022-12-14T07:04:28.253Z,4.30
2022-12-14T07:06:56.538Z,4.40
2022-12-14T07:09:24.740Z,4.35
2022-12-14T07:11:53.461Z,4.68
2022-12-14T07:14:21.614Z,4.13
2022-12-14T07:16:49.744Z,4.23
2022-12-14T07:19:19.210Z,4.69
2022-12-14T07:21:47.334Z,5.19
2022-12-14T07:24:16.067Z,5.14
2022-12-14T07:26:44.470Z,5.30
2022-12-14T07:29:14.907Z,5.30
2022-12-14T07:31:44.486Z,5.67
2022-12-14T07:34:18.316Z,5.59
2022-12-14T07:36:49.157Z,6.14
2022-12-14T07:39:17.639Z,6.05
2022-12-14T07:41:47.994Z,6.41
2022-12-14T07:44:21.583Z,6.69
2022-12-14T07:46:50.212Z,6.87
2022-12-14T07:49:18.009Z,7.05
2022-12-14T07:51:46.839Z,7.55
2022-12-14T07:54:15.574Z,7.55
2022-12-14T07:56:45.041Z,7.91
2022-12-14T07:59:18.778Z,7.62
2022-12-14T08:01:47.753Z,7.29
2022-12-14T08:04:19.499Z,7.30
2022-12-14T08:06:49.467Z,7.11
2022-12-14T08:09:19.319Z,7.57
2022-12-14T08:11:47.507Z,6.89
2022-12-14T08:14:19.008Z,6.59
2022-12-14T08:16:48.899Z,7.22
2022-12-14T08:19:18.105Z,7.00
2022-12-14T08:21:46.175Z,6.75
2022-12-14T08:24:14.587Z,7.51
2022-12-14T08:26:42.160Z,7.07
2022-12-14T08:29:15.437Z,6.99
2022-12-14T08:31:42.963Z,6.71
2022-12-14T08:34:10.497Z,6.84
2022-12-14T08:36:37.999Z,6.72
2022-12-14T08:39:10.313Z,7.17
2022-12-14T08:41:37.888Z,7.28
2022-12-14T08:44:06.289Z,6.85
2022-12-14T08:46:37.581Z,6.68
2022-12-14T08:49:05.341Z,6.54
2022-12-14T08:51:32.949Z,7.04
2022-12-14T08:54:00.420Z,7.43
2022-12-14T08:56:29.201Z,7.13
2022-12-14T08:58:57.707Z,6.99
2022-12-14T09:01:34.004Z,6.97
2022-12-14T09:04:09.119Z,6.99
2022-12-14T09:06:39.701Z,7.36
2022-12-14T09:09:15.656Z,7.28
2022-12-14T09:11:45.132Z,6.84
2022-12-14T09:14:13.078Z,6.63
2022-12-14T09:16:40.994Z,6.94
2022-12-14T09:19:08.620Z,7.08
2022-12-14T09:21:36.624Z,7.62
2022-12-14T09:24:05.354Z,7.54
2022-12-14T09:26:33.877Z,7.65
2022-12-14T09:29:01.463Z,7.73
2022-12-14T09:31:29.254Z,7.92
2022-12-14T09:33:57.022Z,7.57
2022-12-14T09:36:28.104Z,7.44
2022-12-14T09:38:57.709Z,7.57
2022-12-14T09:41:57.706Z,8.71
2022-12-14T09:44:43.962Z,9.99
2022-12-14T09:47:33.903Z,10.86
2022-12-14T09:50:16.057Z,11.38
2022-12-14T09:52:51.745Z,11.34
2022-12-14T09:55:43.470Z,10.95
2022-12-14T09:58:23.754Z,11.23
2022-12-14T10:01:24.869Z,10.24
2022-12-14T10:04:35.804Z,9.93
2022-12-14T10:07:57.085Z,10.14
2022-12-14T10:10:32.477Z,10.31
2022-12-14T10:13:42.707Z,9.94
2022-12-14T10:16:32.345Z,9.52
2022-12-14T10:19:41.281Z,10.06
2022-12-14T10:22:20.415Z,9.73
2022-12-14T10:25:17.716Z,10.07
2022-12-14T10:28:20.953Z,9.51
2022-12-14T10:30:51.265Z,9.30
2022-12-14T10:33:30.991Z,9.96
2022-12-14T10:36:21.069Z,9.78
2022-12-14T10:38:59.040Z,9.79
2022-12-14T10:41:37.425Z,10.37
2022-12-14T10:44:21.734Z,10.47
2022-12-14T10:47:05.965Z,9.91
2022-12-14T10:49:57.886Z,10.10
2022-12-14T10:52:36.116Z,10.53
2022-12-14T10:55:15.431Z,11.31
2022-12-14T10:57:42.974Z,12.55
2022-12-14T11:00:23.052Z,13.31
2022-12-14T11:02:56.126Z,13.74
2022-12-14T11:06:02.922Z,14.74
2022-12-14T11:08:47.865Z,14.59
2022-12-14T11:11:23.822Z,14.63
2022-12-14T11:14:07.837Z,13.95
2022-12-14T11:16:41.855Z,13.23
2022-12-14T11:19:19.365Z,12.63
2022-12-14T11:21:50.441Z,12.40
2022-12-14T11:24:27.556Z,12.67
2022-12-14T11:27:01.424Z,13.21
2022-12-14T11:29:39.435Z,13.84
2022-12-14T11:32:17.501Z,13.35
2022-12-14T11:34:44.952Z,12.79
2022-12-14T11:37:28.393Z,13.24
2022-12-14T11:40:01.190Z,13.62
2022-12-14T11:42:30.932Z,14.22
2022-12-14T11:45:26.122Z,14.88
2022-12-14T11:48:20.298Z,15.52
2022-12-14T11:50:50.385Z,15.45
2022-12-14T11:53:21.381Z,14.71
2022-12-14T11:56:14.985Z,14.38
2022-12-14T11:58:53.512Z,13.88
2022-12-14T12:01:26.324Z,14.42
2022-12-14T12:03:58.523Z,14.97
2022-12-14T12:06:29.472Z,15.31
2022-12-14T12:09:01.053Z,15.46
2022-12-14T12:11:32.867Z,15.16
2022-12-14T12:14:20.250Z,14.31
2022-12-14T12:16:48.494Z,13.97
2022-12-14T12:19:27.186Z,12.32
2022-12-14T12:21:56.500Z,11.89
2022-12-14T12:24:55.080Z,11.18
2022-12-14T12:27:27.488Z,10.79
2022-12-14T12:30:04.782Z,10.52
2022-12-14T12:32:37.728Z,10.33
2022-12-14T12:35:16.335Z,10.01
2022-12-14T12:37:50.951Z,10.49
2022-12-14T12:40:31.328Z,9.96
2022-12-14T12:43:38.390Z,9.64
2022-12-14T12:46:18.700Z,9.61
2022-12-14T12:48:55.214Z,9.64
2022-12-14T12:51:50.450Z,9.58
2022-12-14T12:54:40.844Z,9.52
2022-12-14T12:57:13.006Z,10.13
2022-12-14T12:59:51.279Z,10.50
2022-12-14T13:02:38.585Z,10.43
2022-12-14T13:05:45.147Z,10.09
2022-12-14T13:08:26.614Z,9.79
2022-12-14T13:11:25.154Z,9.50
2022-12-14T13:14:28.201Z,9.71
2022-12-14T13:16:57.043Z,9.85
2022-12-14T13:19:54.635Z,9.43
2022-12-14T13:22:34.535Z,9.43
2022-12-14T13:25:16.351Z,9.61
2022-12-14T13:28:16.059Z,9.39
2022-12-14T13:31:13.817Z,9.09
2022-12-14T13:33:55.069Z,8.99
2022-12-14T13:37:18.375Z,8.85
2022-12-14T13:40:13.640Z,9.35
2022-12-14T13:43:05.816Z,9.02
2022-12-14T13:45:44.947Z,9.25
2022-12-14T13:48:31.955Z,8.88
2022-12-14T13:51:23.499Z,8.68
2022-12-14T13:54:06.052Z,8.53
2022-12-14T13:56:38.437Z,9.08
2022-12-14T13:59:33.200Z,9.53
2022-12-14T14:02:03.314Z,9.53
2022-12-14T14:04:35.607Z,9.89
2022-12-14T14:07:25.033Z,10.20
2022-12-14T14:10:04.711Z,9.32
2022-12-14T14:12:39.456Z,8.97
2022-12-14T14:15:25.806Z,8.98
2022-12-14T14:17:55.913Z,9.06
2022-12-14T14:20:46.585Z,9.20
2022-12-14T14:23:16.829Z,9.19
2022-12-14T14:26:11.491Z,8.80
2022-12-14T14:28:39.371Z,8.46
2022-12-14T14:31:09.413Z,8.33
2022-12-14T14:33:48.878Z,8.33
2022-12-14T14:36:36.328Z,8.23
2022-12-14T14:39:55.438Z,8.18
2022-12-14T14:42:24.452Z,8.06
2022-12-14T14:45:01.774Z,8.05
2022-12-14T14:47:41.480Z,8.05
2022-12-14T14:50:27.061Z,8.02
2022-12-14T14:53:28.495Z,8.13
2022-12-14T14:56:05.985Z,7.92
2022-12-14T14:58:39.477Z,7.89
2022-12-14T15:01:25.339Z,7.89
2022-12-14T15:04:02.915Z,7.86
2022-12-14T15:06:39.814Z,7.80
2022-12-14T15:09:10.343Z,7.74
2022-12-14T15:11:52.298Z,7.82
2022-12-14T15:14:48.330Z,7.86
2022-12-14T15:17:22.990Z,7.91
2022-12-14T15:19:54.829Z,8.19
2022-12-14T15:22:42.169Z,8.40
2022-12-14T15:25:28.450Z,8.38
2022-12-14T15:28:06.076Z,8.25
2022-12-14T15:30:34.697Z,7.92
2022-12-14T15:33:08.073Z,7.86
2022-12-14T15:35:39.722Z,7.74
2022-12-14T15:38:24.851Z,7.63
2022-12-14T15:41:03.472Z,7.87
2022-12-14T15:43:31.996Z,7.36
2022-12-14T15:46:04.804Z,7.17
2022-12-14T15:48:35.091Z,6.94
2022-12-14T15:51:10.339Z,6.92
2022-12-14T15:53:50.886Z,6.86
2022-12-14T15:56:37.983Z,6.75
2022-12-14T15:59:24.525Z,6.89
2022-12-14T16:02:27.271Z,6.65
2022-12-14T16:04:57.214Z,6.73
2022-12-14T16:07:38.483Z,6.57
2022-12-14T16:10:25.941Z,6.49
2022-12-14T16:13:02.676Z,6.52
2022-12-14T16:15:31.866Z,6.50
2022-12-14T16:18:03.411Z,6.50
2022-12-14T16:20:37.811Z,6.61
2022-12-14T16:23:14.502Z,6.57
2022-12-14T16:26:16.815Z,6.53
2022-12-14T16:28:44.367Z,6.95
2022-12-14T16:31:25.541Z,6.89
2022-12-14T16:34:19.166Z,6.79
2022-12-14T16:39:49.927Z,6.83
2022-12-14T16:42:26.406Z,6.68
2022-12-14T16:44:55.719Z,6.69
2022-12-14T16:48:00.208Z,6.52
2022-12-14T16:50:54.989Z,6.59
2022-12-14T16:53:34.166Z,6.85
2022-12-14T16:56:06.554Z,6.80
2022-12-14T16:58:40.867Z,7.05
2022-12-14T17:01:11.176Z,6.72
2022-12-14T17:03:40.177Z,6.73
2022-12-14T17:06:16.450Z,6.66
2022-12-14T17:08:45.388Z,6.60
2022-12-14T17:11:14.528Z,6.63
2022-12-14T17:13:42.912Z,6.61
2022-12-14T17:16:21.013Z,6.93
2022-12-14T17:18:49.671Z,7.04
2022-12-14T17:21:28.796Z,7.03
2022-12-14T17:23:57.530Z,6.72
2022-12-14T17:26:30.850Z,6.71
2022-12-14T17:28:58.698Z,6.60
2022-12-14T17:31:29.595Z,6.62
2022-12-14T17:33:58.315Z,6.60
2022-12-14T17:36:25.874Z,6.53
2022-12-14T17:38:53.339Z,6.54
2022-12-14T17:41:26.249Z,6.68
2022-12-14T17:43:57.932Z,6.70
2022-12-14T17:46:27.031Z,6.66
2022-12-14T17:48:54.628Z,6.68
2022-12-14T17:51:27.521Z,6.62
2022-12-14T17:54:28.806Z,6.73
2022-12-14T17:57:15.917Z,6.75
2022-12-14T17:59:47.798Z,6.82
2022-12-14T18:02:36.118Z,6.87
2022-12-14T18:05:04.837Z,6.95
2022-12-14T18:07:32.340Z,7.01
2022-12-14T18:09:59.855Z,7.21
2022-12-14T18:12:27.433Z,7.18
2022-12-14T18:14:55.400Z,7.32
2022-12-14T18:17:25.082Z,7.25
2022-12-14T18:19:52.599Z,7.30
2022-12-14T18:22:21.363Z,7.68
2022-12-14T18:24:49.394Z,7.78
2022-12-14T18:27:17.205Z,7.53
2022-12-14T18:29:44.846Z,7.35
2022-12-14T18:32:15.505Z,7.03
2022-12-14T18:34:43.156Z,6.89
2022-12-14T18:37:11.323Z,7.02
2022-12-14T18:39:39.253Z,6.85
2022-12-14T18:42:07.718Z,6.58
2022-12-14T18:44:35.949Z,6.81
2022-12-14T18:47:33.199Z,6.66
2022-12-14T18:49:53.260Z,6.44
2022-12-14T18:52:20.972Z,6.38
2022-12-14T18:54:54.468Z,6.42
2022-12-14T18:57:24.458Z,6.51
2022-12-14T18:59:55.758Z,6.82
2022-12-14T19:02:26.909Z,7.15
2022-12-14T19:04:56.369Z,7.01
2022-12-14T19:07:24.429Z,7.37
2022-12-14T19:09:52.567Z,7.14
2022-12-14T19:12:23.267Z,7.00
2022-12-14T19:14:57.029Z,6.82
2022-12-14T19:17:24.851Z,6.64
2022-12-14T19:19:53.080Z,6.80
2022-12-14T19:22:22.377Z,6.90
2022-12-14T19:24:52.599Z,6.94
2022-12-14T19:27:43.919Z,6.92
2022-12-14T19:30:14.210Z,7.07
2022-12-14T19:32:42.194Z,7.03
2022-12-14T19:35:11.460Z,6.88
2022-12-14T19:37:39.139Z,6.75
2022-12-14T19:40:13.341Z,6.65
2022-12-14T19:42:41.566Z,6.57
2022-12-14T19:45:11.128Z,6.57
2022-12-14T19:47:38.880Z,6.66
2022-12-14T19:50:08.070Z,6.65
2022-12-14T19:52:35.933Z,6.65
2022-12-14T19:55:04.728Z,6.65
2022-12-14T19:57:35.381Z,6.72
2022-12-14T20:00:03.218Z,6.71
2022-12-14T20:02:38.493Z,6.73
2022-12-14T20:05:08.675Z,6.70
2022-12-14T20:07:41.980Z,6.62
2022-12-14T20:10:12.267Z,6.59
2022-12-14T20:12:40.071Z,6.44
2022-12-14T20:15:09.091Z,6.49
2022-12-14T20:17:39.097Z,6.54
2022-12-14T20:20:07.717Z,6.65
2022-12-14T20:22:35.401Z,6.71
2022-12-14T20:25:03.508Z,6.77
2022-12-14T20:27:33.786Z,6.60
2022-12-14T20:30:09.960Z,6.52
2022-12-14T20:32:41.464Z,6.60
2022-12-14T20:35:12.180Z,6.62
2022-12-14T20:37:45.296Z,6.62
2022-12-14T20:40:39.496Z,6.66
2022-12-14T20:43:12.566Z,6.55
2022-12-14T20:45:44.432Z,6.45
2022-12-14T20:48:18.392Z,6.35
2022-12-14T20:50:50.521Z,6.47
2022-12-14T20:53:22.942Z,6.43
2022-12-14T20:55:51.954Z,6.70
2022-12-14T20:58:24.676Z,6.48
2022-12-14T21:00:53.585Z,6.48
2022-12-14T21:03:24.080Z,6.50
2022-12-14T21:05:53.958Z,6.42
2022-12-14T21:08:21.919Z,6.40
2022-12-14T21:10:49.440Z,6.36
2022-12-14T21:13:17.000Z,6.37
2022-12-14T21:15:45.475Z,6.40
2022-12-14T21:18:12.979Z,6.56
2022-12-14T21:20:40.458Z,6.62
2022-12-14T21:23:07.972Z,6.89
2022-12-14T21:25:35.466Z,6.61
2022-12-14T21:28:03.071Z,6.25
2022-12-14T21:30:30.508Z,6.33
2022-12-14T21:32:58.743Z,6.41
2022-12-14T21:35:26.151Z,6.56
2022-12-14T21:37:55.037Z,6.27
2022-12-14T21:40:40.828Z,6.40
2022-12-14T21:43:08.570Z,6.59
2022-12-14T21:45:36.572Z,6.54
2022-12-14T21:48:04.276Z,6.16
2022-12-14T21:50:32.132Z,6.02
2022-12-14T21:53:01.824Z,6.22
2022-12-14T21:55:29.287Z,6.09
2022-12-14T21:58:16.832Z,6.06
2022-12-14T22:00:47.112Z,6.04
2022-12-14T22:03:14.992Z,6.08
2022-12-14T22:05:43.470Z,6.08
2022-12-14T22:08:10.925Z,6.22
2022-12-14T22:10:38.409Z,6.22
2022-12-14T22:13:06.028Z,6.10
2022-12-14T22:15:33.481Z,6.35
2022-12-14T22:18:01.030Z,6.18
2022-12-14T22:20:28.431Z,6.49
2022-12-14T22:23:00.099Z,6.22
2022-12-14T22:25:27.710Z,6.15
2022-12-14T22:27:55.166Z,6.19
2022-12-14T22:30:27.130Z,6.10
2022-12-14T22:32:58.281Z,6.18
2022-12-14T22:35:25.858Z,6.02
2022-12-14T22:37:53.350Z,6.22
2022-12-14T22:40:21.982Z,6.13
2022-12-14T22:42:49.454Z,6.03
2022-12-14T22:45:17.127Z,5.67
2022-12-14T22:47:44.606Z,5.72
2022-12-14T22:50:12.262Z,5.79
2022-12-14T22:52:40.407Z,5.81
2022-12-14T22:55:10.954Z,5.96
2022-12-14T22:57:43.166Z,5.91
2022-12-14T23:00:17.131Z,5.82
2022-12-14T23:02:48.080Z,6.13
2022-12-14T23:05:18.026Z,6.11
2022-12-14T23:07:45.813Z,5.72
2022-12-14T23:10:31.759Z,5.57
2022-12-14T23:13:17.695Z,5.68
2022-12-14T23:16:04.019Z,5.59
2022-12-14T23:18:50.219Z,5.58
2022-12-14T23:21:36.226Z,5.43
2022-12-14T23:24:22.647Z,5.46
2022-12-14T23:27:09.947Z,5.92
2022-12-14T23:29:56.450Z,5.59
2022-12-14T23:32:42.767Z,5.35
2022-12-14T23:35:28.535Z,5.13
2022-12-14T23:38:14.739Z,5.15
2022-12-14T23:41:00.858Z,5.43
2022-12-14T23:43:46.733Z,5.26
2022-12-14T23:46:33.161Z,5.21
2022-12-14T23:49:19.406Z,5.26
2022-12-14T23:52:08.246Z,5.51
2022-12-14T23:54:54.137Z,5.45
2022-12-14T23:57:40.358Z,5.45
